sensor_id;sensor_type;location;lat;lon;timestamp;temperature;humidity
20349;DHT22;10332;50.208;18.988;2023-02-15T00:00:07;5.70;71.80
20349;DHT22;10332;50.208;18.988;2023-02-15T00:02:57;5.70;71.30
20349;DHT22;10332;50.208;18.988;2023-02-15T00:05:25;5.80;70.80
20349;DHT22;10332;50.208;18.988;2023-02-15T00:07:52;5.70;72.10
20349;DHT22;10332;50.208;18.988;2023-02-15T00:10:20;5.70;71.20
20349;DHT22;10332;50.208;18.988;2023-02-15T00:12:47;5.70;72.40
20349;DHT22;10332;50.208;18.988;2023-02-15T00:15:15;5.70;71.90
20349;DHT22;10332;50.208;18.988;2023-02-15T00:17:42;5.70;71.80
20349;DHT22;10332;50.208;18.988;2023-02-15T00:20:09;5.70;71.20
20349;DHT22;10332;50.208;18.988;2023-02-15T00:22:38;5.60;71.00
20349;DHT22;10332;50.208;18.988;2023-02-15T00:25:05;5.50;71.70
20349;DHT22;10332;50.208;18.988;2023-02-15T00:27:33;5.40;72.30
20349;DHT22;10332;50.208;18.988;2023-02-15T00:30:01;5.40;73.10
20349;DHT22;10332;50.208;18.988;2023-02-15T00:32:29;5.40;73.60
20349;DHT22;10332;50.208;18.988;2023-02-15T00:34:56;5.40;73.20
20349;DHT22;10332;50.208;18.988;2023-02-15T00:37:23;5.40;73.10
20349;DHT22;10332;50.208;18.988;2023-02-15T00:39:51;5.40;73.70
20349;DHT22;10332;50.208;18.988;2023-02-15T00:42:18;5.40;73.80
20349;DHT22;10332;50.208;18.988;2023-02-15T00:44:46;5.50;73.60
20349;DHT22;10332;50.208;18.988;2023-02-15T00:47:13;5.50;73.10
20349;DHT22;10332;50.208;18.988;2023-02-15T00:49:40;5.50;73.10
20349;DHT22;10332;50.208;18.988;2023-02-15T00:52:08;5.50;72.90
20349;DHT22;10332;50.208;18.988;2023-02-15T00:54:35;5.50;72.30
20349;DHT22;10332;50.208;18.988;2023-02-15T00:57:05;5.40;72.30
20349;DHT22;10332;50.208;18.988;2023-02-15T00:59:34;5.40;72.90
20349;DHT22;10332;50.208;18.988;2023-02-15T01:02:02;5.40;73.50
20349;DHT22;10332;50.208;18.988;2023-02-15T01:04:29;5.40;74.10
20349;DHT22;10332;50.208;18.988;2023-02-15T01:06:57;5.40;74.20
20349;DHT22;10332;50.208;18.988;2023-02-15T01:09:24;5.40;74.30
20349;DHT22;10332;50.208;18.988;2023-02-15T01:11:52;5.50;74.30
20349;DHT22;10332;50.208;18.988;2023-02-15T01:14:19;5.50;74.20
20349;DHT22;10332;50.208;18.988;2023-02-15T01:16:47;5.50;74.20
20349;DHT22;10332;50.208;18.988;2023-02-15T01:19:14;5.60;74.10
20349;DHT22;10332;50.208;18.988;2023-02-15T01:21:42;5.60;73.80
20349;DHT22;10332;50.208;18.988;2023-02-15T01:24:13;5.60;73.50
20349;DHT22;10332;50.208;18.988;2023-02-15T01:26:41;5.60;73.40
20349;DHT22;10332;50.208;18.988;2023-02-15T01:29:09;5.60;73.80
20349;DHT22;10332;50.208;18.988;2023-02-15T01:31:36;5.60;73.50
20349;DHT22;10332;50.208;18.988;2023-02-15T01:34:06;5.60;73.50
20349;DHT22;10332;50.208;18.988;2023-02-15T01:36:34;5.60;73.50
20349;DHT22;10332;50.208;18.988;2023-02-15T01:39:02;5.60;73.20
20349;DHT22;10332;50.208;18.988;2023-02-15T01:41:29;5.60;73.60
20349;DHT22;10332;50.208;18.988;2023-02-15T01:44:00;5.50;72.50
20349;DHT22;10332;50.208;18.988;2023-02-15T01:46:34;5.40;73.50
20349;DHT22;10332;50.208;18.988;2023-02-15T01:49:25;5.30;73.90
20349;DHT22;10332;50.208;18.988;2023-02-15T01:51:54;5.20;74.90
20349;DHT22;10332;50.208;18.988;2023-02-15T01:54:27;5.20;75.30
20349;DHT22;10332;50.208;18.988;2023-02-15T01:57:03;5.20;76.10
20349;DHT22;10332;50.208;18.988;2023-02-15T01:59:38;5.20;76.10
20349;DHT22;10332;50.208;18.988;2023-02-15T02:02:12;5.10;76.10
20349;DHT22;10332;50.208;18.988;2023-02-15T02:04:48;5.10;76.10
20349;DHT22;10332;50.208;18.988;2023-02-15T02:07:20;5.10;77.00
20349;DHT22;10332;50.208;18.988;2023-02-15T02:09:50;5.10;77.80
20349;DHT22;10332;50.208;18.988;2023-02-15T02:12:20;5.00;78.20
20349;DHT22;10332;50.208;18.988;2023-02-15T02:14:50;5.00;79.00
20349;DHT22;10332;50.208;18.988;2023-02-15T02:41:44;4.80;79.90
20349;DHT22;10332;50.208;18.988;2023-02-15T02:47:19;4.70;80.70
20349;DHT22;10332;50.208;18.988;2023-02-15T02:50:07;4.70;81.20
20349;DHT22;10332;50.208;18.988;2023-02-15T02:52:48;4.80;81.40
20349;DHT22;10332;50.208;18.988;2023-02-15T02:58:13;4.70;80.30
20349;DHT22;10332;50.208;18.988;2023-02-15T03:00:50;4.70;80.30
20349;DHT22;10332;50.208;18.988;2023-02-15T03:03:51;4.70;80.80
20349;DHT22;10332;50.208;18.988;2023-02-15T03:09:15;4.70;81.50
20349;DHT22;10332;50.208;18.988;2023-02-15T03:14:55;4.70;81.00
20349;DHT22;10332;50.208;18.988;2023-02-15T03:17:32;4.70;81.40
20349;DHT22;10332;50.208;18.988;2023-02-15T03:20:07;4.70;81.80
20349;DHT22;10332;50.208;18.988;2023-02-15T03:22:49;4.70;81.80
20349;DHT22;10332;50.208;18.988;2023-02-15T03:25:36;4.60;82.10
20349;DHT22;10332;50.208;18.988;2023-02-15T03:28:13;4.60;82.50
20349;DHT22;10332;50.208;18.988;2023-02-15T03:30:48;4.50;83.20
20349;DHT22;10332;50.208;18.988;2023-02-15T03:33:21;4.50;84.10
20349;DHT22;10332;50.208;18.988;2023-02-15T03:38:44;4.40;84.40
20349;DHT22;10332;50.208;18.988;2023-02-15T03:41:20;4.40;84.90
20349;DHT22;10332;50.208;18.988;2023-02-15T03:49:42;4.20;87.20
20349;DHT22;10332;50.208;18.988;2023-02-15T03:52:16;4.20;88.10
20349;DHT22;10332;50.208;18.988;2023-02-15T03:54:44;4.20;88.80
20349;DHT22;10332;50.208;18.988;2023-02-15T03:57:21;4.20;88.70
20349;DHT22;10332;50.208;18.988;2023-02-15T04:00:14;4.30;89.20
20349;DHT22;10332;50.208;18.988;2023-02-15T04:05:44;4.40;88.40
20349;DHT22;10332;50.208;18.988;2023-02-15T04:08:12;4.40;88.10
20349;DHT22;10332;50.208;18.988;2023-02-15T04:10:40;4.40;86.90
20349;DHT22;10332;50.208;18.988;2023-02-15T04:13:29;4.30;87.70
20349;DHT22;10332;50.208;18.988;2023-02-15T04:15:58;4.30;88.10
20349;DHT22;10332;50.208;18.988;2023-02-15T04:18:40;4.30;88.20
20349;DHT22;10332;50.208;18.988;2023-02-15T04:21:29;4.30;89.40
20349;DHT22;10332;50.208;18.988;2023-02-15T04:24:16;4.30;89.60
20349;DHT22;10332;50.208;18.988;2023-02-15T04:27:04;4.30;88.80
20349;DHT22;10332;50.208;18.988;2023-02-15T04:29:32;4.20;89.30
20349;DHT22;10332;50.208;18.988;2023-02-15T04:32:01;4.20;89.70
20349;DHT22;10332;50.208;18.988;2023-02-15T04:34:29;4.20;89.80
20349;DHT22;10332;50.208;18.988;2023-02-15T04:36:56;4.20;89.40
20349;DHT22;10332;50.208;18.988;2023-02-15T04:39:24;4.20;89.90
20349;DHT22;10332;50.208;18.988;2023-02-15T04:41:51;4.20;89.70
20349;DHT22;10332;50.208;18.988;2023-02-15T04:44:19;4.20;89.70
20349;DHT22;10332;50.208;18.988;2023-02-15T04:46:46;4.10;90.00
20349;DHT22;10332;50.208;18.988;2023-02-15T04:49:14;4.10;90.50
20349;DHT22;10332;50.208;18.988;2023-02-15T04:51:42;4.10;91.00
20349;DHT22;10332;50.208;18.988;2023-02-15T04:54:09;4.10;91.00
20349;DHT22;10332;50.208;18.988;2023-02-15T04:56:36;4.10;90.90
20349;DHT22;10332;50.208;18.988;2023-02-15T04:59:06;4.00;90.60
20349;DHT22;10332;50.208;18.988;2023-02-15T05:01:33;4.10;91.10
20349;DHT22;10332;50.208;18.988;2023-02-15T05:04:01;4.00;91.30
20349;DHT22;10332;50.208;18.988;2023-02-15T05:06:28;4.10;91.70
20349;DHT22;10332;50.208;18.988;2023-02-15T05:08:57;4.10;91.60
20349;DHT22;10332;50.208;18.988;2023-02-15T05:11:26;4.10;91.40
20349;DHT22;10332;50.208;18.988;2023-02-15T05:13:54;4.10;91.70
20349;DHT22;10332;50.208;18.988;2023-02-15T05:16:21;4.10;91.70
20349;DHT22;10332;50.208;18.988;2023-02-15T05:18:49;4.10;91.90
20349;DHT22;10332;50.208;18.988;2023-02-15T05:21:16;4.10;91.70
20349;DHT22;10332;50.208;18.988;2023-02-15T05:23:44;4.20;91.40
20349;DHT22;10332;50.208;18.988;2023-02-15T05:26:12;4.10;91.70
20349;DHT22;10332;50.208;18.988;2023-02-15T05:29:03;4.20;92.30
20349;DHT22;10332;50.208;18.988;2023-02-15T05:31:32;4.20;92.00
20349;DHT22;10332;50.208;18.988;2023-02-15T05:34:01;4.20;91.70
20349;DHT22;10332;50.208;18.988;2023-02-15T05:36:28;4.30;91.50
20349;DHT22;10332;50.208;18.988;2023-02-15T05:38:56;4.30;91.00
20349;DHT22;10332;50.208;18.988;2023-02-15T05:41:23;4.30;90.80
20349;DHT22;10332;50.208;18.988;2023-02-15T05:43:55;4.20;90.70
20349;DHT22;10332;50.208;18.988;2023-02-15T05:46:23;4.20;90.90
20349;DHT22;10332;50.208;18.988;2023-02-15T05:48:51;4.20;91.00
20349;DHT22;10332;50.208;18.988;2023-02-15T05:51:18;4.10;91.30
20349;DHT22;10332;50.208;18.988;2023-02-15T05:53:46;4.10;91.70
20349;DHT22;10332;50.208;18.988;2023-02-15T05:56:13;4.10;91.90
20349;DHT22;10332;50.208;18.988;2023-02-15T05:58:41;4.00;92.10
20349;DHT22;10332;50.208;18.988;2023-02-15T06:01:10;4.10;92.40
20349;DHT22;10332;50.208;18.988;2023-02-15T06:03:40;4.00;92.70
20349;DHT22;10332;50.208;18.988;2023-02-15T06:06:07;4.00;92.90
20349;DHT22;10332;50.208;18.988;2023-02-15T06:08:36;4.00;92.70
20349;DHT22;10332;50.208;18.988;2023-02-15T06:11:05;4.00;92.80
20349;DHT22;10332;50.208;18.988;2023-02-15T06:13:34;4.00;92.90
20349;DHT22;10332;50.208;18.988;2023-02-15T06:16:05;4.00;92.90
20349;DHT22;10332;50.208;18.988;2023-02-15T06:18:34;4.00;93.30
20349;DHT22;10332;50.208;18.988;2023-02-15T06:21:01;3.90;93.40
20349;DHT22;10332;50.208;18.988;2023-02-15T06:23:29;3.90;93.80
20349;DHT22;10332;50.208;18.988;2023-02-15T06:25:56;3.90;94.30
20349;DHT22;10332;50.208;18.988;2023-02-15T06:28:24;3.90;94.10
20349;DHT22;10332;50.208;18.988;2023-02-15T06:30:52;4.00;94.70
20349;DHT22;10332;50.208;18.988;2023-02-15T06:33:20;4.00;94.20
20349;DHT22;10332;50.208;18.988;2023-02-15T06:35:48;4.00;94.10
20349;DHT22;10332;50.208;18.988;2023-02-15T06:38:16;3.90;94.00
20349;DHT22;10332;50.208;18.988;2023-02-15T06:40:44;4.00;94.40
20349;DHT22;10332;50.208;18.988;2023-02-15T06:43:12;4.10;94.40
20349;DHT22;10332;50.208;18.988;2023-02-15T06:45:41;4.20;94.30
20349;DHT22;10332;50.208;18.988;2023-02-15T06:48:09;4.30;93.20
20349;DHT22;10332;50.208;18.988;2023-02-15T06:50:38;4.40;92.90
20349;DHT22;10332;50.208;18.988;2023-02-15T06:53:06;4.40;92.70
20349;DHT22;10332;50.208;18.988;2023-02-15T06:55:33;4.50;91.60
20349;DHT22;10332;50.208;18.988;2023-02-15T06:58:01;4.50;91.00
20349;DHT22;10332;50.208;18.988;2023-02-15T07:00:28;4.50;91.20
20349;DHT22;10332;50.208;18.988;2023-02-15T07:02:57;4.50;91.20
20349;DHT22;10332;50.208;18.988;2023-02-15T07:05:26;4.60;91.30
20349;DHT22;10332;50.208;18.988;2023-02-15T07:07:59;4.70;91.20
20349;DHT22;10332;50.208;18.988;2023-02-15T07:10:27;4.80;90.50
20349;DHT22;10332;50.208;18.988;2023-02-15T07:12:55;4.80;90.10
20349;DHT22;10332;50.208;18.988;2023-02-15T07:15:23;4.90;90.30
20349;DHT22;10332;50.208;18.988;2023-02-15T07:17:51;5.00;88.40
20349;DHT22;10332;50.208;18.988;2023-02-15T07:20:21;5.00;87.90
20349;DHT22;10332;50.208;18.988;2023-02-15T07:22:50;5.10;87.10
20349;DHT22;10332;50.208;18.988;2023-02-15T07:25:18;5.20;85.30
20349;DHT22;10332;50.208;18.988;2023-02-15T07:27:45;5.10;83.50
20349;DHT22;10332;50.208;18.988;2023-02-15T07:30:15;5.10;83.30
20349;DHT22;10332;50.208;18.988;2023-02-15T07:32:44;5.00;83.90
20349;DHT22;10332;50.208;18.988;2023-02-15T07:35:32;5.00;83.90
20349;DHT22;10332;50.208;18.988;2023-02-15T07:38:00;5.00;85.50
20349;DHT22;10332;50.208;18.988;2023-02-15T07:40:28;5.00;85.30
20349;DHT22;10332;50.208;18.988;2023-02-15T07:42:57;5.10;85.90
20349;DHT22;10332;50.208;18.988;2023-02-15T07:45:26;5.10;85.90
20349;DHT22;10332;50.208;18.988;2023-02-15T07:47:54;5.20;86.10
20349;DHT22;10332;50.208;18.988;2023-02-15T07:50:21;5.30;83.80
20349;DHT22;10332;50.208;18.988;2023-02-15T07:52:49;5.50;83.40
20349;DHT22;10332;50.208;18.988;2023-02-15T07:55:16;5.60;80.30
20349;DHT22;10332;50.208;18.988;2023-02-15T07:57:45;5.70;80.70
20349;DHT22;10332;50.208;18.988;2023-02-15T08:00:17;5.90;79.90
20349;DHT22;10332;50.208;18.988;2023-02-15T08:02:54;6.10;76.80
20349;DHT22;10332;50.208;18.988;2023-02-15T08:05:42;6.50;75.90
20349;DHT22;10332;50.208;18.988;2023-02-15T08:08:11;6.80;73.40
20349;DHT22;10332;50.208;18.988;2023-02-15T08:11:13;6.90;70.80
20349;DHT22;10332;50.208;18.988;2023-02-15T08:14:14;7.10;69.90
20349;DHT22;10332;50.208;18.988;2023-02-15T08:16:51;7.40;67.20
20349;DHT22;10332;50.208;18.988;2023-02-15T08:19:22;7.70;63.00
20349;DHT22;10332;50.208;18.988;2023-02-15T08:21:52;8.00;60.90
20349;DHT22;10332;50.208;18.988;2023-02-15T08:24:31;8.40;59.40
20349;DHT22;10332;50.208;18.988;2023-02-15T08:27:00;8.90;54.20
20349;DHT22;10332;50.208;18.988;2023-02-15T08:29:34;9.80;50.50
20349;DHT22;10332;50.208;18.988;2023-02-15T08:32:09;11.70;43.10
20349;DHT22;10332;50.208;18.988;2023-02-15T08:34:41;14.60;30.50
20349;DHT22;10332;50.208;18.988;2023-02-15T08:37:08;17.50;5.50
20349;DHT22;10332;50.208;18.988;2023-02-15T08:39:36;20.10;1.00
20349;DHT22;10332;50.208;18.988;2023-02-15T08:42:04;22.30;1.00
20349;DHT22;10332;50.208;18.988;2023-02-15T08:44:31;24.00;1.00
20349;DHT22;10332;50.208;18.988;2023-02-15T08:46:59;25.50;1.00
20349;DHT22;10332;50.208;18.988;2023-02-15T08:49:31;26.70;1.00
20349;DHT22;10332;50.208;18.988;2023-02-15T08:51:58;27.90;1.00
20349;DHT22;10332;50.208;18.988;2023-02-15T08:54:26;28.60;1.00
20349;DHT22;10332;50.208;18.988;2023-02-15T08:56:54;29.40;1.00
20349;DHT22;10332;50.208;18.988;2023-02-15T08:59:22;30.40;1.00
20349;DHT22;10332;50.208;18.988;2023-02-15T09:01:51;31.40;1.00
20349;DHT22;10332;50.208;18.988;2023-02-15T09:04:20;32.10;1.00
20349;DHT22;10332;50.208;18.988;2023-02-15T09:06:49;32.70;1.00
20349;DHT22;10332;50.208;18.988;2023-02-15T09:09:18;33.10;1.00
20349;DHT22;10332;50.208;18.988;2023-02-15T09:11:48;33.60;1.00
20349;DHT22;10332;50.208;18.988;2023-02-15T09:14:25;34.10;1.00
20349;DHT22;10332;50.208;18.988;2023-02-15T09:16:54;34.50;1.00
20349;DHT22;10332;50.208;18.988;2023-02-15T09:19:23;35.20;1.00
20349;DHT22;10332;50.208;18.988;2023-02-15T09:21:50;35.70;1.00
20349;DHT22;10332;50.208;18.988;2023-02-15T09:24:18;36.50;1.00
20349;DHT22;10332;50.208;18.988;2023-02-15T09:26:47;37.30;1.00
20349;DHT22;10332;50.208;18.988;2023-02-15T09:29:17;37.70;1.00
20349;DHT22;10332;50.208;18.988;2023-02-15T09:31:47;38.00;1.00
20349;DHT22;10332;50.208;18.988;2023-02-15T09:34:20;38.50;1.00
20349;DHT22;10332;50.208;18.988;2023-02-15T09:36:49;39.20;1.00
20349;DHT22;10332;50.208;18.988;2023-02-15T09:39:23;39.70;1.00
20349;DHT22;10332;50.208;18.988;2023-02-15T09:56:31;40.30;1.00
20349;DHT22;10332;50.208;18.988;2023-02-15T09:59:34;40.60;1.00
20349;DHT22;10332;50.208;18.988;2023-02-15T10:02:15;41.20;1.00
20349;DHT22;10332;50.208;18.988;2023-02-15T10:08:20;41.70;1.00
20349;DHT22;10332;50.208;18.988;2023-02-15T10:10:57;41.80;1.00
20349;DHT22;10332;50.208;18.988;2023-02-15T10:17:10;42.80;1.00
20349;DHT22;10332;50.208;18.988;2023-02-15T10:23:25;42.90;1.00
20349;DHT22;10332;50.208;18.988;2023-02-15T10:32:24;42.80;1.00
20349;DHT22;10332;50.208;18.988;2023-02-15T10:35:10;42.90;1.00
20349;DHT22;10332;50.208;18.988;2023-02-15T10:40:46;43.10;1.00
20349;DHT22;10332;50.208;18.988;2023-02-15T10:49:48;44.60;1.00
20349;DHT22;10332;50.208;18.988;2023-02-15T10:58:17;44.50;1.00
20349;DHT22;10332;50.208;18.988;2023-02-15T11:01:25;44.80;1.00
20349;DHT22;10332;50.208;18.988;2023-02-15T11:06:54;44.90;1.00
20349;DHT22;10332;50.208;18.988;2023-02-15T11:09:36;45.10;1.00
20349;DHT22;10332;50.208;18.988;2023-02-15T11:12:13;45.30;1.00
20349;DHT22;10332;50.208;18.988;2023-02-15T11:17:36;45.10;1.00
20349;DHT22;10332;50.208;18.988;2023-02-15T11:20:33;44.70;1.00
20349;DHT22;10332;50.208;18.988;2023-02-15T11:23:13;44.40;1.00
20349;DHT22;10332;50.208;18.988;2023-02-15T11:25:45;44.10;1.00
20349;DHT22;10332;50.208;18.988;2023-02-15T11:28:39;44.30;1.00
20349;DHT22;10332;50.208;18.988;2023-02-15T11:31:16;43.90;1.00
20349;DHT22;10332;50.208;18.988;2023-02-15T11:33:52;43.90;1.00
20349;DHT22;10332;50.208;18.988;2023-02-15T11:36:28;44.30;1.00
20349;DHT22;10332;50.208;18.988;2023-02-15T11:39:18;44.60;1.00
20349;DHT22;10332;50.208;18.988;2023-02-15T11:41:52;44.70;1.00
20349;DHT22;10332;50.208;18.988;2023-02-15T11:44:39;45.10;1.00
20349;DHT22;10332;50.208;18.988;2023-02-15T11:47:14;45.40;1.00
20349;DHT22;10332;50.208;18.988;2023-02-15T11:49:42;45.20;1.00
20349;DHT22;10332;50.208;18.988;2023-02-15T11:52:14;44.30;1.00
20349;DHT22;10332;50.208;18.988;2023-02-15T11:54:49;43.80;1.00
20349;DHT22;10332;50.208;18.988;2023-02-15T11:57:36;43.60;1.00
20349;DHT22;10332;50.208;18.988;2023-02-15T12:00:26;43.60;1.00
20349;DHT22;10332;50.208;18.988;2023-02-15T12:03:27;43.70;1.00
20349;DHT22;10332;50.208;18.988;2023-02-15T12:06:15;44.00;1.00
20349;DHT22;10332;50.208;18.988;2023-02-15T12:08:53;43.90;1.00
20349;DHT22;10332;50.208;18.988;2023-02-15T12:11:36;44.30;1.00
20349;DHT22;10332;50.208;18.988;2023-02-15T12:14:07;44.30;1.00
20349;DHT22;10332;50.208;18.988;2023-02-15T12:16:50;44.30;1.00
20349;DHT22;10332;50.208;18.988;2023-02-15T12:22:02;44.70;1.00
20349;DHT22;10332;50.208;18.988;2023-02-15T12:24:38;44.90;1.00
20349;DHT22;10332;50.208;18.988;2023-02-15T12:27:33;44.50;1.00
20349;DHT22;10332;50.208;18.988;2023-02-15T12:30:32;44.10;1.00
20349;DHT22;10332;50.208;18.988;2023-02-15T12:33:13;44.20;1.00
20349;DHT22;10332;50.208;18.988;2023-02-15T12:35:44;44.20;1.00
20349;DHT22;10332;50.208;18.988;2023-02-15T12:40:39;43.90;1.00
20349;DHT22;10332;50.208;18.988;2023-02-15T12:43:29;44.50;1.00
20349;DHT22;10332;50.208;18.988;2023-02-15T12:46:24;44.70;1.00
20349;DHT22;10332;50.208;18.988;2023-02-15T12:51:51;44.90;1.00
20349;DHT22;10332;50.208;18.988;2023-02-15T12:54:41;45.00;1.00
20349;DHT22;10332;50.208;18.988;2023-02-15T13:02:56;44.30;1.00
20349;DHT22;10332;50.208;18.988;2023-02-15T13:05:36;44.30;1.00
20349;DHT22;10332;50.208;18.988;2023-02-15T13:08:15;44.20;1.00
20349;DHT22;10332;50.208;18.988;2023-02-15T13:10:57;44.40;1.00
20349;DHT22;10332;50.208;18.988;2023-02-15T13:13:33;44.70;1.00
20349;DHT22;10332;50.208;18.988;2023-02-15T13:16:06;44.40;1.00
20349;DHT22;10332;50.208;18.988;2023-02-15T13:18:41;44.10;1.00
20349;DHT22;10332;50.208;18.988;2023-02-15T13:21:17;43.90;1.00
20349;DHT22;10332;50.208;18.988;2023-02-15T13:24:36;43.80;1.00
20349;DHT22;10332;50.208;18.988;2023-02-15T13:26:45;43.90;1.00
20349;DHT22;10332;50.208;18.988;2023-02-15T13:29:25;44.00;1.00
20349;DHT22;10332;50.208;18.988;2023-02-15T13:35:01;43.80;1.00
20349;DHT22;10332;50.208;18.988;2023-02-15T13:52:20;40.90;1.00
20349;DHT22;10332;50.208;18.988;2023-02-15T14:01:19;40.50;1.00
20349;DHT22;10332;50.208;18.988;2023-02-15T14:04:31;40.50;1.00
20349;DHT22;10332;50.208;18.988;2023-02-15T14:10:11;40.90;1.00
20349;DHT22;10332;50.208;18.988;2023-02-15T14:18:45;42.00;1.00
20349;DHT22;10332;50.208;18.988;2023-02-15T14:21:52;42.40;1.00
20349;DHT22;10332;50.208;18.988;2023-02-15T14:24:46;41.80;1.00
20349;DHT22;10332;50.208;18.988;2023-02-15T14:27:22;40.50;1.00
20349;DHT22;10332;50.208;18.988;2023-02-15T14:29:58;39.80;1.00
20349;DHT22;10332;50.208;18.988;2023-02-15T14:32:45;38.50;1.00
20349;DHT22;10332;50.208;18.988;2023-02-15T14:35:27;37.40;1.00
20349;DHT22;10332;50.208;18.988;2023-02-15T14:49:14;33.50;1.00
20349;DHT22;10332;50.208;18.988;2023-02-15T14:56:45;32.00;1.00
20349;DHT22;10332;50.208;18.988;2023-02-15T15:02:40;31.10;1.00
20349;DHT22;10332;50.208;18.988;2023-02-15T15:08:04;30.10;1.00
20349;DHT22;10332;50.208;18.988;2023-02-15T15:10:40;29.70;1.00
20349;DHT22;10332;50.208;18.988;2023-02-15T15:19:09;28.90;1.00
20349;DHT22;10332;50.208;18.988;2023-02-15T15:21:53;28.20;1.00
20349;DHT22;10332;50.208;18.988;2023-02-15T15:27:38;26.70;1.00
20349;DHT22;10332;50.208;18.988;2023-02-15T15:49:46;18.20;1.00
20349;DHT22;10332;50.208;18.988;2023-02-15T15:52:18;17.10;1.00
20349;DHT22;10332;50.208;18.988;2023-02-15T15:54:51;16.20;1.00
20349;DHT22;10332;50.208;18.988;2023-02-15T15:57:30;15.40;1.00
20349;DHT22;10332;50.208;18.988;2023-02-15T16:00:00;14.90;1.00
20349;DHT22;10332;50.208;18.988;2023-02-15T16:02:29;14.50;1.00
20349;DHT22;10332;50.208;18.988;2023-02-15T16:05:07;14.00;1.00
20349;DHT22;10332;50.208;18.988;2023-02-15T16:07:36;13.70;1.00
20349;DHT22;10332;50.208;18.988;2023-02-15T16:10:19;13.50;1.00
20349;DHT22;10332;50.208;18.988;2023-02-15T16:12:49;13.20;1.00
20349;DHT22;10332;50.208;18.988;2023-02-15T16:15:42;12.90;1.00
20349;DHT22;10332;50.208;18.988;2023-02-15T16:18:15;12.60;1.00
20349;DHT22;10332;50.208;18.988;2023-02-15T16:20:53;12.40;1.00
20349;DHT22;10332;50.208;18.988;2023-02-15T16:28:39;11.80;1.00
20349;DHT22;10332;50.208;18.988;2023-02-15T16:31:13;11.60;1.00
20349;DHT22;10332;50.208;18.988;2023-02-15T16:33:43;11.40;1.00
20349;DHT22;10332;50.208;18.988;2023-02-15T16:36:26;11.20;1.00
20349;DHT22;10332;50.208;18.988;2023-02-15T16:41:25;11.00;1.00
20349;DHT22;10332;50.208;18.988;2023-02-15T16:43:57;10.80;1.00
20349;DHT22;10332;50.208;18.988;2023-02-15T16:46:46;10.70;1.00
20349;DHT22;10332;50.208;18.988;2023-02-15T16:49:23;10.60;1.00
20349;DHT22;10332;50.208;18.988;2023-02-15T16:52:02;10.50;1.00
20349;DHT22;10332;50.208;18.988;2023-02-15T16:54:35;10.40;1.00
20349;DHT22;10332;50.208;18.988;2023-02-15T16:57:03;10.30;1.00
20349;DHT22;10332;50.208;18.988;2023-02-15T16:59:35;10.20;1.00
20349;DHT22;10332;50.208;18.988;2023-02-15T17:02:15;10.10;1.00
20349;DHT22;10332;50.208;18.988;2023-02-15T17:05:14;10.00;1.00
20349;DHT22;10332;50.208;18.988;2023-02-15T17:08:15;9.90;1.00
20349;DHT22;10332;50.208;18.988;2023-02-15T17:16:35;9.40;1.00
20349;DHT22;10332;50.208;18.988;2023-02-15T17:19:40;9.30;1.00
20349;DHT22;10332;50.208;18.988;2023-02-15T17:22:25;9.10;1.00
20349;DHT22;10332;50.208;18.988;2023-02-15T17:25:02;9.10;1.00
20349;DHT22;10332;50.208;18.988;2023-02-15T17:27:32;9.00;5.00
20349;DHT22;10332;50.208;18.988;2023-02-15T17:30:08;8.90;9.80
20349;DHT22;10332;50.208;18.988;2023-02-15T17:32:56;8.80;14.20
20349;DHT22;10332;50.208;18.988;2023-02-15T17:35:32;8.60;19.40
20349;DHT22;10332;50.208;18.988;2023-02-15T17:38:17;8.50;23.00
20349;DHT22;10332;50.208;18.988;2023-02-15T17:40:47;8.40;27.10
20349;DHT22;10332;50.208;18.988;2023-02-15T17:43:14;8.30;29.70
20349;DHT22;10332;50.208;18.988;2023-02-15T17:45:49;8.20;32.50
20349;DHT22;10332;50.208;18.988;2023-02-15T17:48:33;8.10;34.90
20349;DHT22;10332;50.208;18.988;2023-02-15T17:51:04;7.90;37.30
20349;DHT22;10332;50.208;18.988;2023-02-15T17:53:33;7.70;39.30
20349;DHT22;10332;50.208;18.988;2023-02-15T17:56:01;7.60;41.50
20349;DHT22;10332;50.208;18.988;2023-02-15T17:58:37;7.50;43.40
20349;DHT22;10332;50.208;18.988;2023-02-15T18:01:15;7.40;44.50
20349;DHT22;10332;50.208;18.988;2023-02-15T18:04:04;7.20;46.10
20349;DHT22;10332;50.208;18.988;2023-02-15T18:06:55;7.10;46.80
20349;DHT22;10332;50.208;18.988;2023-02-15T18:09:41;7.00;47.80
20349;DHT22;10332;50.208;18.988;2023-02-15T18:12:29;6.80;49.80
20349;DHT22;10332;50.208;18.988;2023-02-15T18:14:59;6.80;49.90
20349;DHT22;10332;50.208;18.988;2023-02-15T18:17:33;6.70;50.90
20349;DHT22;10332;50.208;18.988;2023-02-15T18:20:29;6.70;51.50
20349;DHT22;10332;50.208;18.988;2023-02-15T18:23:02;6.60;52.30
20349;DHT22;10332;50.208;18.988;2023-02-15T18:25:30;6.60;54.30
20349;DHT22;10332;50.208;18.988;2023-02-15T18:27:57;6.50;55.00
20349;DHT22;10332;50.208;18.988;2023-02-15T18:30:25;6.40;55.20
20349;DHT22;10332;50.208;18.988;2023-02-15T18:32:55;6.40;55.80
20349;DHT22;10332;50.208;18.988;2023-02-15T18:35:30;6.30;56.70
20349;DHT22;10332;50.208;18.988;2023-02-15T18:38:00;6.20;57.40
20349;DHT22;10332;50.208;18.988;2023-02-15T18:40:29;6.10;58.90
20349;DHT22;10332;50.208;18.988;2023-02-15T18:42:56;6.10;59.80
20349;DHT22;10332;50.208;18.988;2023-02-15T18:45:28;6.00;59.90
20349;DHT22;10332;50.208;18.988;2023-02-15T18:47:59;6.00;60.50
20349;DHT22;10332;50.208;18.988;2023-02-15T18:50:31;5.90;61.00
20349;DHT22;10332;50.208;18.988;2023-02-15T18:53:02;5.90;61.90
20349;DHT22;10332;50.208;18.988;2023-02-15T18:55:31;5.80;62.20
20349;DHT22;10332;50.208;18.988;2023-02-15T18:58:01;5.80;63.50
20349;DHT22;10332;50.208;18.988;2023-02-15T19:00:33;5.80;63.00
20349;DHT22;10332;50.208;18.988;2023-02-15T19:03:02;5.70;62.60
20349;DHT22;10332;50.208;18.988;2023-02-15T19:05:31;5.70;63.00
20349;DHT22;10332;50.208;18.988;2023-02-15T19:08:00;5.60;64.30
20349;DHT22;10332;50.208;18.988;2023-02-15T19:10:31;5.50;64.80
20349;DHT22;10332;50.208;18.988;2023-02-15T19:12:59;5.50;66.40
20349;DHT22;10332;50.208;18.988;2023-02-15T19:15:29;5.40;67.60
20349;DHT22;10332;50.208;18.988;2023-02-15T19:17:56;5.40;68.40
20349;DHT22;10332;50.208;18.988;2023-02-15T19:20:50;5.30;69.00
20349;DHT22;10332;50.208;18.988;2023-02-15T19:23:21;5.20;70.70
20349;DHT22;10332;50.208;18.988;2023-02-15T19:25:51;5.20;71.00
20349;DHT22;10332;50.208;18.988;2023-02-15T19:28:31;5.10;71.60
20349;DHT22;10332;50.208;18.988;2023-02-15T19:31:00;5.00;72.80
20349;DHT22;10332;50.208;18.988;2023-02-15T19:33:27;4.90;73.80
20349;DHT22;10332;50.208;18.988;2023-02-15T19:35:55;4.90;74.60
20349;DHT22;10332;50.208;18.988;2023-02-15T19:38:30;4.80;75.00
20349;DHT22;10332;50.208;18.988;2023-02-15T19:41:07;4.80;75.90
20349;DHT22;10332;50.208;18.988;2023-02-15T19:43:42;4.80;76.30